createdAt,value
2023-02-08T00:00:45.230Z,4.00
2023-02-08T00:03:12.718Z,3.52
2023-02-08T00:05:42.337Z,3.33
2023-02-08T00:08:09.466Z,4.20
2023-02-08T00:10:36.419Z,5.47
2023-02-08T00:13:03.377Z,6.17
2023-02-08T00:15:30.261Z,5.50
2023-02-08T00:17:57.165Z,4.50
2023-02-08T00:20:24.225Z,3.76
2023-02-08T00:22:52.578Z,3.24
2023-02-08T00:25:21.812Z,3.12
2023-02-08T00:27:48.788Z,4.22
2023-02-08T00:30:16.217Z,5.38
2023-02-08T00:32:43.065Z,5.91
2023-02-08T00:35:10.028Z,5.18
2023-02-08T00:37:36.974Z,4.24
2023-02-08T00:40:06.072Z,3.58
2023-02-08T00:42:33.020Z,3.10
2023-02-08T00:44:59.969Z,2.97
2023-02-08T00:47:26.864Z,4.00
2023-02-08T00:49:53.914Z,5.37
2023-02-08T00:52:21.176Z,6.07
2023-02-08T00:54:48.133Z,5.40
2023-02-08T00:57:15.280Z,4.42
2023-02-08T00:59:42.679Z,3.70
2023-02-08T01:02:09.607Z,3.19
2023-02-08T01:04:36.871Z,3.15
2023-02-08T01:07:05.299Z,4.39
2023-02-08T01:09:32.669Z,5.57
2023-02-08T01:11:59.752Z,6.18
2023-02-08T01:14:27.011Z,5.42
2023-02-08T01:16:53.873Z,4.51
2023-02-08T01:19:20.920Z,3.83
2023-02-08T01:21:49.436Z,3.34
2023-02-08T01:24:16.302Z,3.22
2023-02-08T01:26:44.399Z,4.27
2023-02-08T01:29:11.240Z,5.49
2023-02-08T01:31:41.500Z,6.50
2023-02-08T01:34:09.841Z,5.82
2023-02-08T01:36:37.968Z,4.84
2023-02-08T01:39:06.404Z,4.08
2023-02-08T01:41:36.150Z,3.48
2023-02-08T01:44:11.902Z,3.35
2023-02-08T01:46:43.686Z,4.64
2023-02-08T01:49:10.452Z,6.02
2023-02-08T01:51:47.313Z,6.43
2023-02-08T01:54:17.563Z,5.53
2023-02-08T01:56:47.308Z,4.56
2023-02-08T01:59:23.680Z,3.83
2023-02-08T02:01:54.549Z,3.29
2023-02-08T02:04:22.036Z,3.17
2023-02-08T02:06:53.569Z,4.21
2023-02-08T02:09:26.609Z,5.35
2023-02-08T02:11:54.844Z,5.86
2023-02-08T02:14:22.745Z,5.13
2023-02-08T02:16:49.799Z,4.17
2023-02-08T02:19:40.668Z,3.41
2023-02-08T02:22:22.877Z,3.16
2023-02-08T02:25:04.775Z,4.36
2023-02-08T02:27:59.196Z,5.44
2023-02-08T02:30:45.090Z,5.67
2023-02-08T02:33:24.013Z,4.72
2023-02-08T02:36:03.459Z,3.83
2023-02-08T02:39:25.912Z,3.18
2023-02-08T02:43:02.209Z,3.20
2023-02-08T02:45:34.862Z,4.87
2023-02-08T02:48:11.709Z,5.88
2023-02-08T02:51:14.074Z,6.34
2023-02-08T02:54:00.157Z,5.30
2023-02-08T02:56:37.225Z,4.30
2023-02-08T02:59:10.231Z,3.62
2023-02-08T03:01:38.879Z,3.11
2023-02-08T03:04:19.434Z,2.99
2023-02-08T03:06:52.608Z,4.08
2023-02-08T03:09:28.414Z,5.05
2023-02-08T03:12:29.549Z,5.71
2023-02-08T03:15:13.398Z,5.76
2023-02-08T03:17:54.322Z,4.73
2023-02-08T03:20:53.794Z,3.76
2023-02-08T03:23:49.515Z,2.99
2023-02-08T03:26:23.952Z,2.95
2023-02-08T03:28:58.918Z,4.30
2023-02-08T03:31:38.150Z,5.56
2023-02-08T03:34:14.383Z,5.94
2023-02-08T03:37:04.794Z,5.01
2023-02-08T03:39:35.792Z,3.91
2023-02-08T03:42:09.511Z,3.19
2023-02-08T03:44:44.517Z,2.96
2023-02-08T03:47:22.086Z,3.99
2023-02-08T03:49:52.850Z,5.04
2023-02-08T03:52:20.183Z,5.67
2023-02-08T03:54:54.863Z,4.97
2023-02-08T03:57:26.154Z,3.82
2023-02-08T04:00:07.623Z,3.51
2023-02-08T04:02:46.569Z,4.60
2023-02-08T04:05:13.986Z,5.66
2023-02-08T04:07:40.992Z,4.94
2023-02-08T04:10:08.484Z,3.78
2023-02-08T04:12:36.076Z,2.97
2023-02-08T04:15:03.095Z,2.77
2023-02-08T04:17:30.000Z,3.88
2023-02-08T04:19:56.794Z,5.18
2023-02-08T04:22:23.823Z,5.80
2023-02-08T04:24:51.003Z,5.00
2023-02-08T04:27:17.892Z,4.02
2023-02-08T04:29:44.707Z,3.30
2023-02-08T04:32:11.988Z,3.01
2023-02-08T04:34:39.882Z,3.94
2023-02-08T04:37:08.332Z,5.25
2023-02-08T04:39:35.489Z,5.89
2023-02-08T04:42:03.365Z,5.03
2023-02-08T04:44:33.064Z,4.04
2023-02-08T04:47:00.894Z,3.29
2023-02-08T04:49:27.835Z,2.98
2023-02-08T04:51:54.666Z,3.94
2023-02-08T04:54:22.123Z,5.14
2023-02-08T04:56:48.958Z,5.51
2023-02-08T04:59:16.102Z,4.59
2023-02-08T05:01:42.966Z,3.47
2023-02-08T05:04:10.006Z,3.23
2023-02-08T05:06:36.945Z,4.57
2023-02-08T05:09:03.961Z,5.35
2023-02-08T05:11:30.992Z,4.46
2023-02-08T05:13:57.857Z,3.36
2023-02-08T05:16:24.832Z,3.16
2023-02-08T05:18:51.668Z,4.77
2023-02-08T05:21:18.523Z,5.74
2023-02-08T05:23:46.846Z,5.06
2023-02-08T05:26:13.916Z,4.02
2023-02-08T05:28:40.720Z,3.28
2023-02-08T05:31:18.427Z,3.36
2023-02-08T05:33:45.563Z,5.13
2023-02-08T05:36:12.630Z,6.34
2023-02-08T05:38:39.433Z,5.66
2023-02-08T05:41:06.364Z,4.58
2023-02-08T05:43:33.321Z,3.79
2023-02-08T05:46:00.236Z,3.29
2023-02-08T05:48:27.254Z,4.23
2023-02-08T05:50:54.460Z,6.23
2023-02-08T05:53:21.291Z,5.71
2023-02-08T05:55:48.850Z,4.52
2023-02-08T05:58:16.338Z,3.61
2023-02-08T06:00:44.050Z,2.95
2023-02-08T06:03:11.710Z,2.99
2023-02-08T06:05:40.246Z,5.10
2023-02-08T06:08:07.844Z,6.63
2023-02-08T06:10:35.626Z,5.82
2023-02-08T06:13:03.218Z,4.57
2023-02-08T06:15:30.330Z,3.63
2023-02-08T06:17:57.296Z,2.97
2023-02-08T06:20:24.250Z,3.42
2023-02-08T06:22:51.136Z,5.52
2023-02-08T06:25:18.090Z,6.90
2023-02-08T06:27:45.003Z,6.16
2023-02-08T06:30:13.112Z,5.03
2023-02-08T06:32:40.017Z,4.15
2023-02-08T06:35:07.834Z,3.45
2023-02-08T06:37:34.708Z,3.44
2023-02-08T06:40:02.169Z,5.58
2023-02-08T06:42:29.118Z,6.43
2023-02-08T06:44:56.140Z,5.37
2023-02-08T06:47:24.071Z,4.14
2023-02-08T06:49:51.640Z,3.40
2023-02-08T06:52:19.364Z,4.84
2023-02-08T06:54:46.241Z,6.55
2023-02-08T06:57:13.506Z,5.75
2023-02-08T06:59:42.029Z,4.44
2023-02-08T07:02:18.552Z,3.42
2023-02-08T07:04:45.784Z,3.42
2023-02-08T07:07:13.905Z,5.67
2023-02-08T07:09:40.846Z,6.25
2023-02-08T07:12:08.225Z,5.13
2023-02-08T07:14:39.279Z,4.05
2023-02-08T07:17:06.677Z,3.28
2023-02-08T07:19:33.602Z,3.28
2023-02-08T07:22:07.252Z,5.54
2023-02-08T07:24:43.335Z,7.36
2023-02-08T07:27:12.812Z,6.48
2023-02-08T07:29:40.608Z,5.16
2023-02-08T07:32:08.615Z,4.23
2023-02-08T07:34:37.385Z,3.55
2023-02-08T07:37:05.225Z,3.50
2023-02-08T07:39:32.454Z,5.78
2023-02-08T07:41:59.813Z,7.56
2023-02-08T07:44:28.407Z,6.72
2023-02-08T07:46:55.244Z,5.47
2023-02-08T07:49:22.270Z,4.55
2023-02-08T07:51:49.204Z,3.91
2023-02-08T07:54:16.262Z,3.44
2023-02-08T07:56:43.040Z,3.64
2023-02-08T07:59:10.579Z,5.86
2023-02-08T08:01:37.492Z,7.47
2023-02-08T08:04:04.751Z,6.83
2023-02-08T08:06:31.928Z,5.81
2023-02-08T08:08:58.825Z,5.08
2023-02-08T08:11:25.896Z,4.60
2023-02-08T08:13:53.379Z,4.19
2023-02-08T08:16:20.702Z,3.80
2023-02-08T08:18:47.858Z,3.47
2023-02-08T08:21:16.851Z,4.71
2023-02-08T08:23:44.212Z,6.36
2023-02-08T08:26:14.607Z,5.84
2023-02-08T08:28:42.221Z,4.83
2023-02-08T08:31:18.332Z,4.11
2023-02-08T08:33:45.631Z,3.62
2023-02-08T08:36:13.073Z,4.11
2023-02-08T08:38:41.192Z,5.71
2023-02-08T08:41:10.367Z,5.43
2023-02-08T08:43:37.674Z,4.58
2023-02-08T08:46:09.116Z,3.98
2023-02-08T08:48:37.223Z,3.50
2023-02-08T08:51:04.922Z,3.59
2023-02-08T08:53:31.829Z,5.29
2023-02-08T08:55:58.932Z,5.85
2023-02-08T08:58:25.919Z,5.03
2023-02-08T09:00:54.262Z,4.33
2023-02-08T09:03:21.236Z,3.85
2023-02-08T09:05:48.193Z,3.57
2023-02-08T09:08:15.224Z,3.41
2023-02-08T09:10:42.464Z,3.30
2023-02-08T09:13:10.631Z,3.23
2023-02-08T09:15:41.717Z,3.22
2023-02-08T09:18:08.614Z,4.24
2023-02-08T09:20:38.320Z,5.42
2023-02-08T09:23:05.481Z,5.29
2023-02-08T09:25:33.642Z,4.78
2023-02-08T09:28:00.705Z,4.39
2023-02-08T09:30:27.625Z,4.11
2023-02-08T09:32:54.519Z,3.89
2023-02-08T09:35:21.407Z,3.73
2023-02-08T09:37:48.288Z,3.61
2023-02-08T09:40:25.303Z,3.55
2023-02-08T09:43:01.686Z,3.49
2023-02-08T09:46:03.575Z,3.40
2023-02-08T09:48:39.622Z,3.32
2023-02-08T09:51:29.195Z,3.29
2023-02-08T09:54:07.577Z,3.36
2023-02-08T09:56:40.713Z,3.39
2023-02-08T09:59:16.245Z,3.42
2023-02-08T10:01:43.605Z,3.43
2023-02-08T10:04:40.323Z,3.41
2023-02-08T10:07:11.345Z,3.33
2023-02-08T10:09:38.651Z,3.29
2023-02-08T10:12:41.209Z,3.27
2023-02-08T10:15:23.193Z,3.25
2023-02-08T10:17:59.303Z,3.17
2023-02-08T10:20:38.640Z,3.13
2023-02-08T10:23:22.426Z,3.07
2023-02-08T10:26:08.506Z,3.05
2023-02-08T10:28:49.318Z,3.05
2023-02-08T10:31:35.104Z,3.06
2023-02-08T10:34:16.934Z,3.13
2023-02-08T10:36:44.295Z,3.19
2023-02-08T10:39:22.614Z,3.21
2023-02-08T10:41:51.615Z,3.23
2023-02-08T10:44:40.003Z,3.24
2023-02-08T10:47:47.311Z,3.24
2023-02-08T10:50:21.576Z,3.25
2023-02-08T10:52:49.392Z,3.19
2023-02-08T10:55:19.684Z,3.14
2023-02-08T10:57:49.639Z,3.09
2023-02-08T11:00:21.327Z,3.09
2023-02-08T11:02:52.857Z,3.13
2023-02-08T11:05:23.486Z,3.18
2023-02-08T11:08:09.638Z,3.23
2023-02-08T11:10:39.534Z,3.27
2023-02-08T11:13:20.084Z,3.25
2023-02-08T11:16:02.684Z,3.23
2023-02-08T11:18:34.469Z,3.22
2023-02-08T11:21:08.390Z,3.21
2023-02-08T11:23:40.219Z,3.23
2023-02-08T11:26:23.004Z,3.25
2023-02-08T11:29:06.239Z,3.28
2023-02-08T11:31:35.362Z,3.31
2023-02-08T11:34:11.635Z,3.33
2023-02-08T11:36:48.880Z,3.37
2023-02-08T11:39:26.775Z,3.39
2023-02-08T11:41:58.342Z,3.41
2023-02-08T11:44:32.724Z,3.45
2023-02-08T11:47:02.884Z,3.51
2023-02-08T11:49:54.375Z,3.60
2023-02-08T11:52:25.139Z,3.75
2023-02-08T11:54:53.241Z,3.93
2023-02-08T11:57:28.088Z,4.11
2023-02-08T12:00:18.006Z,4.29
2023-02-08T12:02:46.638Z,4.45
2023-02-08T12:05:18.090Z,4.58
2023-02-08T12:08:00.052Z,4.70
2023-02-08T12:10:27.101Z,4.97
2023-02-08T12:13:09.095Z,5.46
2023-02-08T12:15:57.788Z,5.76
2023-02-08T12:18:44.158Z,5.66
2023-02-08T12:21:17.340Z,5.51
2023-02-08T12:23:50.674Z,5.86
2023-02-08T12:26:25.965Z,6.40
2023-02-08T12:28:55.850Z,7.24
2023-02-08T12:31:25.618Z,8.43
2023-02-08T12:34:04.491Z,9.79
2023-02-08T12:36:50.018Z,11.10
2023-02-08T12:39:58.668Z,11.91
2023-02-08T12:42:34.377Z,12.14
2023-02-08T12:45:28.179Z,12.59
2023-02-08T12:48:05.096Z,13.11
2023-02-08T12:51:01.829Z,13.47
2023-02-08T12:53:38.032Z,13.84
2023-02-08T12:56:13.457Z,14.11
2023-02-08T12:58:48.556Z,14.37
2023-02-08T13:01:21.509Z,14.68
2023-02-08T13:04:04.241Z,14.90
2023-02-08T13:06:39.762Z,14.41
2023-02-08T13:09:49.163Z,14.14
2023-02-08T13:12:24.145Z,14.09
2023-02-08T13:14:57.748Z,14.07
2023-02-08T13:17:29.923Z,13.70
2023-02-08T13:20:20.399Z,12.85
2023-02-08T13:22:48.679Z,11.51
2023-02-08T13:25:23.928Z,10.41
2023-02-08T13:27:51.846Z,9.90
2023-02-08T13:30:20.999Z,9.88
2023-02-08T13:32:50.945Z,9.89
2023-02-08T13:35:20.430Z,9.52
2023-02-08T13:38:22.821Z,9.05
2023-02-08T13:41:15.177Z,8.36
2023-02-08T13:43:55.263Z,7.71
2023-02-08T13:46:24.950Z,7.12
2023-02-08T13:49:02.536Z,6.61
2023-02-08T13:51:35.567Z,6.15
2023-02-08T13:54:02.444Z,5.83
2023-02-08T13:56:52.314Z,5.59
2023-02-08T13:59:34.251Z,5.22
2023-02-08T14:02:14.135Z,4.87
2023-02-08T14:04:50.613Z,4.59
2023-02-08T14:07:24.320Z,4.36
2023-02-08T14:09:54.003Z,4.12
2023-02-08T14:12:28.220Z,3.88
2023-02-08T14:15:16.462Z,3.79
2023-02-08T14:17:49.847Z,4.10
2023-02-08T14:20:22.343Z,4.41
2023-02-08T14:22:52.791Z,4.67
2023-02-08T14:25:43.734Z,4.73
2023-02-08T14:28:26.613Z,4.90
2023-02-08T14:30:59.091Z,5.32
2023-02-08T14:33:34.259Z,5.75
2023-02-08T14:36:07.609Z,6.04
2023-02-08T14:38:51.847Z,6.03
2023-02-08T14:42:09.077Z,5.76
2023-02-08T14:44:38.850Z,5.34
2023-02-08T14:47:27.109Z,5.03
2023-02-08T14:50:16.973Z,4.64
2023-02-08T14:52:48.648Z,4.24
2023-02-08T14:55:20.369Z,4.00
2023-02-08T14:57:48.040Z,4.00
2023-02-08T15:00:23.304Z,4.10
2023-02-08T15:02:50.860Z,4.22
2023-02-08T15:05:34.198Z,4.28
2023-02-08T15:08:02.289Z,4.17
2023-02-08T15:10:30.721Z,4.02
2023-02-08T15:13:02.548Z,3.92
2023-02-08T15:15:39.756Z,3.87
2023-02-08T15:18:18.687Z,3.76
2023-02-08T15:20:56.183Z,3.59
2023-02-08T15:23:24.773Z,3.40
2023-02-08T15:26:23.448Z,3.18
2023-02-08T15:28:50.404Z,2.91
2023-02-08T15:31:30.503Z,2.65
2023-02-08T15:33:59.662Z,2.32
2023-02-08T15:36:34.274Z,2.01
2023-02-08T15:39:10.230Z,1.72
2023-02-08T15:41:38.399Z,1.44
2023-02-08T15:44:23.761Z,1.18
2023-02-08T15:46:55.918Z,0.91
2023-02-08T15:49:29.041Z,0.69
2023-02-08T15:51:57.242Z,0.42
2023-02-08T15:54:25.109Z,0.15
2023-02-08T15:56:59.648Z,-0.09
2023-02-08T15:59:33.216Z,-0.29
2023-02-08T16:02:28.372Z,0.58
2023-02-08T16:04:56.991Z,2.95
2023-02-08T16:07:48.211Z,2.91
2023-02-08T16:10:52.905Z,1.78
2023-02-08T16:13:28.048Z,0.86
2023-02-08T16:16:08.614Z,0.28
2023-02-08T16:18:57.455Z,-0.18
2023-02-08T16:21:43.242Z,-0.54
2023-02-08T16:24:13.476Z,-0.82
2023-02-08T16:26:56.680Z,-1.06
2023-02-08T16:29:31.413Z,-0.92
2023-02-08T16:32:20.749Z,0.53
2023-02-08T16:34:48.029Z,2.01
2023-02-08T16:37:26.789Z,2.63
2023-02-08T16:40:00.767Z,1.87
2023-02-08T16:42:30.880Z,0.92
2023-02-08T16:45:20.704Z,0.24
2023-02-08T16:47:56.784Z,-0.36
2023-02-08T16:50:26.466Z,-0.76
2023-02-08T16:53:02.592Z,-0.83
2023-02-08T16:55:31.946Z,0.36
2023-02-08T16:57:59.670Z,1.75
2023-02-08T17:00:35.452Z,1.92
2023-02-08T17:03:02.789Z,0.91
2023-02-08T17:05:37.912Z,0.07
2023-02-08T17:08:08.907Z,-0.55
2023-02-08T17:10:36.331Z,-0.57
2023-02-08T17:13:19.347Z,0.89
2023-02-08T17:15:49.235Z,1.93
2023-02-08T17:18:17.239Z,1.06
2023-02-08T17:20:45.016Z,0.02
2023-02-08T17:23:13.173Z,-0.69
2023-02-08T17:25:40.308Z,-0.74
2023-02-08T17:28:12.216Z,0.71
2023-02-08T17:30:41.621Z,1.90
2023-02-08T17:33:10.394Z,2.46
2023-02-08T17:35:39.193Z,1.59
2023-02-08T17:38:06.579Z,0.54
2023-02-08T17:40:38.605Z,-0.24
2023-02-08T17:43:06.770Z,-0.83
2023-02-08T17:45:42.231Z,-1.28
2023-02-08T17:48:10.313Z,-1.67
2023-02-08T17:50:37.361Z,-1.68
2023-02-08T17:53:04.448Z,-0.38
2023-02-08T17:55:31.779Z,0.94
2023-02-08T17:57:58.897Z,1.94
2023-02-08T18:00:26.316Z,2.22
2023-02-08T18:02:55.048Z,1.27
2023-02-08T18:05:27.873Z,0.27
2023-02-08T18:07:56.650Z,-0.52
2023-02-08T18:10:25.086Z,-1.10
2023-02-08T18:12:52.419Z,-1.56
2023-02-08T18:15:21.604Z,-1.53
2023-02-08T18:17:50.693Z,0.46
2023-02-08T18:20:18.666Z,1.86
2023-02-08T18:22:46.652Z,2.16
2023-02-08T18:25:16.078Z,1.19
2023-02-08T18:27:43.062Z,0.15
2023-02-08T18:30:11.582Z,-0.61
2023-02-08T18:32:38.848Z,-1.17
2023-02-08T18:35:07.685Z,-1.64
2023-02-08T18:37:36.459Z,-1.73
2023-02-08T18:40:04.721Z,-0.64
2023-02-08T18:42:33.412Z,0.53
2023-02-08T18:45:01.441Z,1.71
2023-02-08T18:47:28.396Z,2.74
2023-02-08T18:49:56.688Z,1.82
2023-02-08T18:52:26.315Z,0.57
2023-02-08T18:54:53.371Z,-0.43
2023-02-08T18:57:21.063Z,-1.15
2023-02-08T18:59:48.189Z,-1.71
2023-02-08T19:02:21.325Z,-1.64
2023-02-08T19:04:48.962Z,0.67
2023-02-08T19:07:16.429Z,2.60
2023-02-08T19:09:44.287Z,2.79
2023-02-08T19:12:15.819Z,1.44
2023-02-08T19:14:43.994Z,0.21
2023-02-08T19:17:13.592Z,-0.65
2023-02-08T19:19:42.220Z,-1.30
2023-02-08T19:22:10.186Z,-1.81
2023-02-08T19:24:37.363Z,-1.85
2023-02-08T19:27:04.534Z,0.16
2023-02-08T19:29:34.061Z,2.15
2023-02-08T19:32:01.563Z,2.69
2023-02-08T19:34:29.139Z,1.52
2023-02-08T19:36:56.201Z,0.27
2023-02-08T19:39:28.091Z,-0.66
2023-02-08T19:41:55.975Z,-1.36
2023-02-08T19:44:23.643Z,-1.93
2023-02-08T19:46:54.144Z,-2.09
2023-02-08T19:49:22.692Z,-0.77
2023-02-08T19:51:50.406Z,1.04
2023-02-08T19:54:19.400Z,2.05
2023-02-08T19:56:47.787Z,1.15
2023-02-08T19:59:21.327Z,-0.06
2023-02-08T20:01:48.426Z,-1.03
2023-02-08T20:04:16.396Z,-1.73
2023-02-08T20:06:45.189Z,-2.29
2023-02-08T20:09:13.877Z,-2.48
2023-02-08T20:11:54.971Z,-0.92
2023-02-08T20:14:24.133Z,1.05
2023-02-08T20:16:51.699Z,1.45
2023-02-08T20:19:19.591Z,0.40
2023-02-08T20:21:46.639Z,-0.78
2023-02-08T20:24:14.539Z,-1.64
2023-02-08T20:26:44.156Z,-1.86
2023-02-08T20:29:11.272Z,-0.56
2023-02-08T20:31:41.160Z,0.81
2023-02-08T20:34:12.961Z,1.74
2023-02-08T20:36:49.539Z,0.73
2023-02-08T20:39:20.820Z,-0.56
2023-02-08T20:41:48.338Z,-1.46
2023-02-08T20:44:18.153Z,-1.72
2023-02-08T20:46:46.746Z,0.00
2023-02-08T20:49:15.525Z,1.16
2023-02-08T20:51:44.121Z,0.33
2023-02-08T20:54:11.791Z,-0.82
2023-02-08T20:56:40.070Z,-1.69
2023-02-08T20:59:10.942Z,-2.34
2023-02-08T21:01:38.830Z,-2.53
2023-02-08T21:04:05.946Z,-0.80
2023-02-08T21:06:35.808Z,1.41
2023-02-08T21:09:06.678Z,2.33
2023-02-08T21:11:34.663Z,1.07
2023-02-08T21:14:02.559Z,-0.30
2023-02-08T21:16:32.257Z,-1.33
2023-02-08T21:19:02.196Z,-2.12
2023-02-08T21:21:30.146Z,-2.78
2023-02-08T21:23:58.135Z,-3.29
2023-02-08T21:26:26.490Z,-3.21
2023-02-08T21:28:55.913Z,-1.09
2023-02-08T21:31:23.915Z,0.87
2023-02-08T21:33:52.086Z,1.38
2023-02-08T21:36:23.825Z,0.35
2023-02-08T21:38:51.456Z,-0.94
2023-02-08T21:41:30.628Z,-1.90
2023-02-08T21:43:59.516Z,-2.70
2023-02-08T21:46:28.484Z,-2.93
2023-02-08T21:49:15.717Z,-1.40
2023-02-08T21:52:03.261Z,0.61
2023-02-08T21:54:43.066Z,0.95
2023-02-08T21:57:10.042Z,-0.38
2023-02-08T21:59:37.818Z,-1.53
2023-02-08T22:02:25.921Z,-2.39
2023-02-08T22:05:14.485Z,-2.51
2023-02-08T22:07:44.937Z,-0.52
2023-02-08T22:10:13.898Z,0.72
2023-02-08T22:12:42.220Z,0.40
2023-02-08T22:15:14.635Z,-0.79
2023-02-08T22:17:41.918Z,-1.85
2023-02-08T22:20:10.344Z,-2.66
2023-02-08T22:22:37.658Z,-3.25
2023-02-08T22:25:05.136Z,-3.47
2023-02-08T22:27:32.275Z,-2.53
2023-02-08T22:29:59.433Z,-1.37
2023-02-08T22:32:26.495Z,-0.49
2023-02-08T22:34:53.740Z,0.17
2023-02-08T22:37:20.754Z,0.31
2023-02-08T22:39:47.957Z,-0.71
2023-02-08T22:42:15.218Z,-1.82
2023-02-08T22:44:44.538Z,-2.68
2023-02-08T22:47:13.426Z,-3.32
2023-02-08T22:49:40.884Z,-3.48
2023-02-08T22:52:08.952Z,-2.49
2023-02-08T22:54:36.326Z,-1.21
2023-02-08T22:57:04.587Z,0.18
2023-02-08T22:59:32.164Z,0.08
2023-02-08T23:02:00.471Z,-1.23
2023-02-08T23:04:28.204Z,-2.08
2023-02-08T23:06:55.677Z,-1.41
2023-02-08T23:09:23.358Z,-0.28
2023-02-08T23:11:51.001Z,-0.84
2023-02-08T23:14:18.486Z,-2.04
2023-02-08T23:16:45.732Z,-2.75
2023-02-08T23:19:18.019Z,-2.13
2023-02-08T23:21:45.084Z,-0.89
2023-02-08T23:24:12.543Z,-0.36
2023-02-08T23:26:39.976Z,-1.42
2023-02-08T23:29:07.014Z,-2.37
2023-02-08T23:31:34.463Z,-1.95
2023-02-08T23:34:01.624Z,-1.27
2023-02-08T23:36:28.589Z,-0.25
2023-02-08T23:38:55.529Z,0.65
2023-02-08T23:41:23.813Z,-0.47
2023-02-08T23:43:54.775Z,-1.84
2023-02-08T23:46:24.714Z,-2.90
2023-02-08T23:48:52.342Z,-3.61
2023-02-08T23:51:20.867Z,-3.75
2023-02-08T23:53:48.603Z,-1.99
2023-02-08T23:56:20.064Z,-0.03
2023-02-08T23:58:49.866Z,0.77
